ELLX/LUX METAR and TAF weather

Enter ICAO airport designator
Station Type Date Time Source
ELLX METAR 2021/01/27 12:20 UTC NOAA

ELLX 271220Z 23010KT 1200 R24/1900U BR -DZ BKN001 00/00 Q1012 NOSIG


Station Type Date Time Source
ELLX Decoded METAR 2021/01/27 12:20 UTC NOAA

Luxembourg / Luxembourg, Luxembourg (ELLX) 49-37N 006-13E 379M
Jan 27, 2021 - 07:20 AM EST / 2021.01.27 1220 UTC
Wind: from the SW (230 degrees) at 12 MPH (10 KT):0
Visibility: less than 1 mile:0
Sky conditions: mostly cloudy
Weather: mist; light drizzle
Temperature: 32 F (0 C)
Windchill: 23 F (-5 C):1
Dew Point: 32 F (0 C)
Relative Humidity: 100%
Pressure (altimeter): 29.88 in. Hg (1012 hPa)
ob: ELLX 271220Z 23010KT 1200 R24/1900U BR -DZ BKN001 00/00 Q1012 NOSIG
cycle: 12

Station Type Date Time Source
ELLX TAF 2021/01/27 12:27 UTC NOAA

TAF ELLX 271100Z 2712/2818 22010KT 5000 BR SCT004 BKN006
TEMPO 2712/2721 3000 BR SCT003 BKN004
BECMG 2721/2801 2500 -RA BR SCT002 BKN004 PROB40
TEMPO 2721/2806 0500 FG VV002
TEMPO 2803/2812 2000 RA OVC002
TEMPO 2812/2818 26015G25KT 4500 -RA SCT003 BKN008

Example: see airport list